Time;durP1;ratioP1;P1;durP2;ratioP2;P2;SDS_P1;SDS_P2;PMS_P1;PMS_P2;Temp;Humidity;BMP_temperature;BMP_pressure;BME280_temperature;BME280_humidity;BME280_pressure;Samples;Min_cycle;Max_cycle;Signal;HPM_P1;HPM_P2
2021/10/18 00:01:12;;;;;;;0.10;0.10;;;;;;;;;;5010336;28;20227;-72
2021/10/18 00:03:40;;;;;;;0.10;0.10;;;;;;;;;;5015587;28;20260;-73
2021/10/18 00:06:06;;;;;;;0.10;0.10;;;;;;;;;;5019506;28;20513;-71
2021/10/18 00:08:32;;;;;;;0.10;0.10;;;;;;;;;;5005833;28;20205;-71
2021/10/18 00:10:59;;;;;;;0.10;0.10;;;;;;;;;;5005710;28;20260;-70
2021/10/18 00:13:25;;;;;;;0.10;0.10;;;;;;;;;;5006103;28;20202;-72
2021/10/18 00:15:51;;;;;;;0.10;0.10;;;;;;;;;;5013642;28;20206;-71
2021/10/18 00:18:17;;;;;;;0.10;0.10;;;;;;;;;;5007062;28;20202;-71
2021/10/18 00:20:45;;;;;;;0.10;0.10;;;;;;;;;;5016292;28;20209;-72
2021/10/18 00:23:11;;;;;;;0.10;0.10;;;;;;;;;;5008466;28;20206;-71
2021/10/18 00:25:37;;;;;;;0.10;0.10;;;;;;;;;;5011929;28;20365;-72
2021/10/18 00:28:04;;;;;;;0.10;0.10;;;;;;;;;;5011421;28;20206;-72
2021/10/18 00:30:30;;;;;;;0.10;0.10;;;;;;;;;;5018155;28;20202;-72
2021/10/18 00:32:56;;;;;;;0.10;0.10;;;;;;;;;;5005645;28;20421;-72
2021/10/18 00:35:23;;;;;;;0.10;0.10;;;;;;;;;;5004595;28;20209;-72
2021/10/18 00:37:50;;;;;;;0.10;0.10;;;;;;;;;;5005414;28;20264;-72
2021/10/18 00:40:17;;;;;;;0.10;0.10;;;;;;;;;;5005553;28;20210;-72
2021/10/18 00:42:43;;;;;;;0.10;0.10;;;;;;;;;;5008547;28;20207;-72
2021/10/18 00:45:10;;;;;;;0.10;0.10;;;;;;;;;;5007088;28;20229;-72
2021/10/18 00:47:37;;;;;;;0.10;0.10;;;;;;;;;;5005390;28;20535;-72
2021/10/18 00:50:04;;;;;;;0.10;0.10;;;;;;;;;;5004878;28;20223;-71
2021/10/18 00:52:30;;;;;;;0.10;0.10;;;;;;;;;;5005035;28;20250;-71
2021/10/18 00:54:58;;;;;;;0.10;0.10;;;;;;;;;;5005018;28;20203;-72
2021/10/18 00:57:24;;;;;;;0.10;0.10;;;;;;;;;;5005316;28;20395;-72
2021/10/18 00:59:51;;;;;;;0.10;0.10;;;;;;;;;;5005297;28;20450;-72
2021/10/18 01:02:18;;;;;;;0.10;0.10;;;;;;;;;;5004768;28;20566;-72
2021/10/18 01:04:45;;;;;;;0.10;0.10;;;;;;;;;;5005027;28;20238;-73
2021/10/18 01:07:12;;;;;;;0.10;0.10;;;;;;;;;;5007624;28;20221;-71
2021/10/18 01:09:38;;;;;;;0.10;0.10;;;;;;;;;;5015758;28;20206;-72
2021/10/18 01:12:06;;;;;;;0.10;0.10;;;;;;;;;;5004921;28;20209;-71
2021/10/18 01:14:32;;;;;;;0.10;0.10;;;;;;;;;;5004910;28;20551;-72
2021/10/18 01:16:59;;;;;;;0.10;0.10;;;;;;;;;;5005184;28;20236;-72
2021/10/18 01:19:26;;;;;;;0.10;0.10;;;;;;;;;;5004586;28;20502;-72
2021/10/18 01:21:56;;;;;;;0.10;0.10;;;;;;;;;;5004755;28;20216;-73
2021/10/18 01:24:23;;;;;;;0.10;0.10;;;;;;;;;;5004562;28;20216;-73
2021/10/18 01:26:49;;;;;;;0.10;0.10;;;;;;;;;;5004698;28;20367;-73
2021/10/18 01:29:15;;;;;;;0.10;0.10;;;;;;;;;;5004119;28;20256;-70
2021/10/18 01:31:41;;;;;;;0.10;0.10;;;;;;;;;;5004670;28;20202;-73
2021/10/18 01:34:08;;;;;;;0.10;0.10;;;;;;;;;;5004468;28;20453;-70
2021/10/18 01:36:34;;;;;;;0.10;0.10;;;;;;;;;;5004470;28;20248;-72
2021/10/18 01:39:02;;;;;;;0.10;0.10;;;;;;;;;;5004570;28;20251;-72
2021/10/18 01:41:28;;;;;;;0.10;0.10;;;;;;;;;;5004061;28;20206;-71
2021/10/18 01:43:54;;;;;;;0.10;0.10;;;;;;;;;;5014439;28;20229;-72
2021/10/18 01:46:20;;;;;;;0.10;0.10;;;;;;;;;;5006860;28;20213;-72
2021/10/18 01:48:47;;;;;;;0.10;0.10;;;;;;;;;;5003668;28;20293;-72
2021/10/18 01:51:13;;;;;;;0.10;0.10;;;;;;;;;;5003612;28;20424;-71
2021/10/18 01:53:39;;;;;;;0.10;0.10;;;;;;;;;;5004247;28;20210;-73
2021/10/18 01:56:07;;;;;;;0.10;0.10;;;;;;;;;;5005276;28;20209;-73
2021/10/18 01:58:33;;;;;;;0.10;0.10;;;;;;;;;;5021998;28;20223;-72
2021/10/18 02:01:00;;;;;;;0.10;0.10;;;;;;;;;;5013356;28;20262;-72
2021/10/18 02:03:26;;;;;;;0.10;0.10;;;;;;;;;;5003697;28;20500;-72
2021/10/18 02:05:52;;;;;;;0.10;0.10;;;;;;;;;;5003805;28;20228;-73
2021/10/18 02:08:18;;;;;;;0.10;0.10;;;;;;;;;;5003879;28;20208;-70
2021/10/18 02:10:45;;;;;;;0.10;0.10;;;;;;;;;;5004108;28;20245;-72
2021/10/18 02:13:12;;;;;;;0.10;0.10;;;;;;;;;;5003970;28;20435;-72
2021/10/18 02:15:38;;;;;;;0.10;0.10;;;;;;;;;;5003558;28;20515;-71
2021/10/18 02:18:05;;;;;;;0.10;0.10;;;;;;;;;;5003838;28;20256;-71
2021/10/18 02:20:31;;;;;;;0.10;0.10;;;;;;;;;;5003722;28;20264;-71
2021/10/18 02:22:58;;;;;;;0.10;0.10;;;;;;;;;;5003467;28;20205;-72
2021/10/18 02:25:24;;;;;;;0.10;0.10;;;;;;;;;;5017505;28;20457;-73
2021/10/18 02:27:50;;;;;;;0.10;0.10;;;;;;;;;;5010574;28;20224;-71
2021/10/18 02:30:18;;;;;;;0.10;0.10;;;;;;;;;;5023041;28;20292;-72
2021/10/18 02:32:44;;;;;;;0.10;0.10;;;;;;;;;;5003534;28;20217;-72
2021/10/18 02:35:11;;;;;;;0.10;0.10;;;;;;;;;;5003586;28;20244;-73
2021/10/18 02:37:37;;;;;;;0.10;0.10;;;;;;;;;;5003443;28;20489;-71
2021/10/18 02:40:04;;;;;;;0.20;0.20;;;;;;;;;;5003498;28;20522;-72
2021/10/18 02:42:30;;;;;;;0.10;0.10;;;;;;;;;;5003420;28;20205;-71
2021/10/18 02:44:56;;;;;;;0.10;0.10;;;;;;;;;;5011067;28;20271;-72
2021/10/18 02:47:24;;;;;;;0.10;0.10;;;;;;;;;;5008839;28;20218;-71
2021/10/18 02:49:50;;;;;;;0.10;0.10;;;;;;;;;;5003193;28;20272;-72
2021/10/18 02:52:16;;;;;;;0.10;0.10;;;;;;;;;;5003544;28;20553;-72
2021/10/18 02:54:43;;;;;;;0.10;0.10;;;;;;;;;;5003327;28;20206;-70
2021/10/18 02:57:09;;;;;;;0.10;0.10;;;;;;;;;;5003084;28;20205;-73
2021/10/18 02:59:35;;;;;;;0.10;0.10;;;;;;;;;;5006609;28;20385;-73
2021/10/18 03:02:02;;;;;;;0.10;0.10;;;;;;;;;;5007260;28;20414;-72
2021/10/18 03:04:29;;;;;;;0.10;0.10;;;;;;;;;;5007174;28;20232;-64
2021/10/18 03:06:55;;;;;;;0.10;0.10;;;;;;;;;;5020717;28;20255;-65
2021/10/18 03:09:22;;;;;;;0.10;0.10;;;;;;;;;;5007580;28;20202;-64
2021/10/18 03:11:48;;;;;;;0.10;0.10;;;;;;;;;;5021929;28;20205;-65
2021/10/18 03:14:14;;;;;;;0.10;0.10;;;;;;;;;;5019355;28;20209;-65
2021/10/18 03:16:40;;;;;;;0.10;0.10;;;;;;;;;;5020376;28;20231;-64
2021/10/18 03:19:08;;;;;;;0.10;0.10;;;;;;;;;;5020940;28;20210;-64
2021/10/18 03:21:36;;;;;;;0.10;0.10;;;;;;;;;;5006680;28;20269;-64
2021/10/18 03:24:02;;;;;;;0.10;0.10;;;;;;;;;;5010872;28;20213;-64
2021/10/18 03:26:28;;;;;;;0.10;0.10;;;;;;;;;;5016602;28;20248;-64
2021/10/18 03:28:55;;;;;;;0.10;0.10;;;;;;;;;;5006428;28;20228;-64
2021/10/18 03:31:21;;;;;;;0.10;0.10;;;;;;;;;;5006834;28;20363;-65
2021/10/18 03:33:48;;;;;;;0.80;0.80;;;;;;;;;;5006460;28;20257;-63
2021/10/18 03:36:14;;;;;;;0.10;0.10;;;;;;;;;;5010047;28;20208;-64
2021/10/18 03:38:42;;;;;;;0.10;0.10;;;;;;;;;;5006275;28;20245;-64
2021/10/18 03:41:08;;;;;;;0.10;0.10;;;;;;;;;;5024796;28;20213;-64
2021/10/18 03:43:34;;;;;;;0.20;0.20;;;;;;;;;;5015428;28;20205;-64
2021/10/18 03:46:01;;;;;;;0.10;0.10;;;;;;;;;;5008890;28;20233;-64
2021/10/18 03:48:27;;;;;;;0.10;0.10;;;;;;;;;;5026239;28;20480;-65
2021/10/18 03:50:53;;;;;;;0.10;0.10;;;;;;;;;;5025615;28;20210;-65
2021/10/18 03:53:20;;;;;;;0.10;0.10;;;;;;;;;;5008869;28;20495;-64
2021/10/18 03:55:47;;;;;;;0.10;0.10;;;;;;;;;;5005942;28;20201;-64
2021/10/18 03:58:13;;;;;;;0.10;0.10;;;;;;;;;;5007473;28;20210;-64
2021/10/18 04:00:40;;;;;;;0.10;0.10;;;;;;;;;;5025422;28;20328;-67
2021/10/18 04:03:06;;;;;;;0.10;0.10;;;;;;;;;;5012242;28;20259;-65
2021/10/18 04:05:32;;;;;;;0.10;0.10;;;;;;;;;;5025068;28;20231;-65
2021/10/18 04:07:59;;;;;;;0.10;0.10;;;;;;;;;;5013652;28;20208;-64
2021/10/18 04:10:25;;;;;;;0.10;0.10;;;;;;;;;;5004340;28;20202;-65
2021/10/18 04:12:52;;;;;;;0.10;0.10;;;;;;;;;;5005774;28;20206;-64
2021/10/18 04:15:19;;;;;;;0.10;0.10;;;;;;;;;;5005565;28;20213;-64
2021/10/18 04:17:46;;;;;;;0.10;0.10;;;;;;;;;;5006001;28;20202;-65
2021/10/18 04:20:12;;;;;;;0.10;0.10;;;;;;;;;;5005947;28;20272;-66
2021/10/18 04:22:38;;;;;;;0.10;0.10;;;;;;;;;;5012082;28;20209;-65
2021/10/18 04:25:05;;;;;;;0.10;0.10;;;;;;;;;;5013011;28;20222;-65
2021/10/18 04:27:31;;;;;;;0.10;0.10;;;;;;;;;;5005803;28;20210;-65
2021/10/18 04:29:59;;;;;;;0.10;0.10;;;;;;;;;;5016097;28;20276;-65
2021/10/18 04:32:25;;;;;;;0.10;0.10;;;;;;;;;;5008555;28;20363;-65
2021/10/18 04:34:51;;;;;;;0.10;0.10;;;;;;;;;;5005871;28;20564;-65
2021/10/18 04:37:18;;;;;;;0.10;0.10;;;;;;;;;;5005578;28;20297;-68
2021/10/18 04:39:44;;;;;;;0.10;0.10;;;;;;;;;;5005390;28;20215;-68
2021/10/18 04:42:10;;;;;;;0.10;0.10;;;;;;;;;;5005703;28;20206;-66
2021/10/18 04:44:37;;;;;;;0.10;0.10;;;;;;;;;;5005174;28;20211;-68
2021/10/18 04:47:05;;;;;;;0.10;0.10;;;;;;;;;;5005627;28;20275;-67
2021/10/18 04:49:31;;;;;;;0.10;0.10;;;;;;;;;;5005432;28;20214;-68
2021/10/18 04:51:59;;;;;;;0.10;0.10;;;;;;;;;;5005368;28;20390;-68
2021/10/18 04:54:25;;;;;;;0.10;0.10;;;;;;;;;;5005429;28;20213;-69
2021/10/18 04:56:51;;;;;;;0.10;0.10;;;;;;;;;;5005238;28;20256;-67
2021/10/18 04:59:18;;;;;;;0.10;0.10;;;;;;;;;;5005077;28;20567;-68
2021/10/18 05:01:44;;;;;;;0.10;0.10;;;;;;;;;;5005262;28;20401;-68
2021/10/18 05:04:11;;;;;;;0.10;0.10;;;;;;;;;;5005209;28;20263;-68
2021/10/18 05:06:38;;;;;;;0.10;0.10;;;;;;;;;;5018795;28;20240;-67
2021/10/18 05:09:05;;;;;;;0.10;0.10;;;;;;;;;;5005210;28;20202;-68
2021/10/18 05:11:31;;;;;;;0.10;0.10;;;;;;;;;;5005069;28;20528;-67
2021/10/18 05:13:57;;;;;;;0.10;0.10;;;;;;;;;;5004611;28;20224;-67
2021/10/18 05:16:24;;;;;;;0.10;0.10;;;;;;;;;;5005009;28;20237;-67
2021/10/18 05:18:50;;;;;;;0.10;0.10;;;;;;;;;;5004346;28;20202;-68
2021/10/18 05:21:17;;;;;;;0.10;0.10;;;;;;;;;;5004434;28;20217;-68
2021/10/18 05:23:44;;;;;;;0.10;0.10;;;;;;;;;;5004633;28;20255;-68
2021/10/18 05:26:10;;;;;;;0.10;0.10;;;;;;;;;;5004310;28;20272;-67
2021/10/18 05:28:36;;;;;;;0.10;0.10;;;;;;;;;;5017777;28;20217;-66
2021/10/18 05:31:02;;;;;;;0.10;0.10;;;;;;;;;;5004751;28;20257;-66
2021/10/18 05:33:28;;;;;;;0.40;0.40;;;;;;;;;;5004602;28;20206;-67
2021/10/18 05:35:55;;;;;;;0.10;0.10;;;;;;;;;;5017938;28;20202;-67
2021/10/18 05:38:22;;;;;;;0.10;0.10;;;;;;;;;;5004053;28;20209;-67
2021/10/18 05:40:49;;;;;;;0.10;0.10;;;;;;;;;;5004926;28;20481;-67
2021/10/18 05:43:15;;;;;;;0.10;0.10;;;;;;;;;;5004410;28;20404;-68
2021/10/18 05:45:42;;;;;;;0.10;0.10;;;;;;;;;;5015219;28;20446;-70
2021/10/18 05:48:08;;;;;;;0.10;0.10;;;;;;;;;;5019043;28;20210;-68
2021/10/18 05:50:36;;;;;;;0.10;0.10;;;;;;;;;;5011048;28;20206;-67
2021/10/18 05:53:02;;;;;;;0.10;0.10;;;;;;;;;;5007778;28;20277;-68
2021/10/18 05:55:30;;;;;;;0.57;0.57;;;;;;;;;;5011024;28;20248;-68
2021/10/18 05:57:57;;;;;;;0.10;0.10;;;;;;;;;;5010821;28;20333;-68
2021/10/18 06:00:24;;;;;;;0.10;0.10;;;;;;;;;;5006347;28;20232;-68
2021/10/18 06:02:51;;;;;;;0.10;0.10;;;;;;;;;;5009831;28;20205;-68
2021/10/18 06:05:17;;;;;;;0.10;0.10;;;;;;;;;;5010610;28;20517;-67
2021/10/18 06:07:44;;;;;;;0.10;0.10;;;;;;;;;;5011704;28;20246;-68
2021/10/18 06:10:10;;;;;;;0.10;0.10;;;;;;;;;;5020757;28;20209;-67
2021/10/18 06:12:38;;;;;;;0.10;0.10;;;;;;;;;;5017147;28;20201;-68
2021/10/18 06:15:05;;;;;;;0.10;0.10;;;;;;;;;;5016255;28;20246;-67
2021/10/18 06:17:31;;;;;;;0.10;0.10;;;;;;;;;;5014219;28;20202;-67
2021/10/18 06:19:58;;;;;;;0.10;0.10;;;;;;;;;;5009070;28;20204;-68
2021/10/18 06:22:24;;;;;;;0.10;0.10;;;;;;;;;;5013564;28;20251;-68
2021/10/18 06:24:50;;;;;;;0.10;0.10;;;;;;;;;;5009604;28;20213;-66
2021/10/18 06:27:17;;;;;;;0.10;0.10;;;;;;;;;;5010989;28;20229;-67
2021/10/18 06:29:45;;;;;;;0.10;0.10;;;;;;;;;;5012804;28;20214;-67
2021/10/18 06:32:11;;;;;;;0.10;0.10;;;;;;;;;;5005944;28;20209;-67
2021/10/18 06:34:37;;;;;;;0.10;0.10;;;;;;;;;;5009457;28;20245;-68
2021/10/18 06:37:04;;;;;;;0.10;0.10;;;;;;;;;;5009073;28;20201;-69
2021/10/18 06:39:30;;;;;;;0.10;0.10;;;;;;;;;;5008128;28;20252;-68
2021/10/18 06:41:56;;;;;;;0.10;0.10;;;;;;;;;;5005855;28;20202;-67
2021/10/18 06:44:22;;;;;;;0.10;0.10;;;;;;;;;;5016207;28;20493;-67
2021/10/18 06:46:50;;;;;;;0.10;0.10;;;;;;;;;;5017106;28;20229;-67
2021/10/18 06:49:16;;;;;;;0.10;0.10;;;;;;;;;;5022966;28;20223;-68
2021/10/18 06:51:46;;;;;;;0.10;0.10;;;;;;;;;;5010169;28;20202;-67
2021/10/18 06:54:13;;;;;;;0.10;0.10;;;;;;;;;;5003249;28;20202;-67
2021/10/18 06:56:44;;;;;;;0.10;0.10;;;;;;;;;;5017040;28;20201;-68
2021/10/18 06:59:12;;;;;;;0.10;0.10;;;;;;;;;;5002917;28;20252;-68
2021/10/18 07:01:39;;;;;;;0.10;0.10;;;;;;;;;;5017683;28;20237;-70
2021/10/18 07:04:07;;;;;;;0.10;0.10;;;;;;;;;;5021851;28;20416;-68
2021/10/18 07:06:33;;;;;;;0.10;0.10;;;;;;;;;;5020961;28;20228;-69
2021/10/18 07:08:59;;;;;;;0.10;0.10;;;;;;;;;;5008817;28;20202;-69
2021/10/18 07:11:26;;;;;;;0.10;0.10;;;;;;;;;;5022065;28;20213;-69
2021/10/18 07:13:53;;;;;;;0.10;0.10;;;;;;;;;;5022338;28;20232;-69
2021/10/18 07:16:19;;;;;;;0.57;0.57;;;;;;;;;;5012618;28;20390;-70
2021/10/18 07:18:45;;;;;;;0.10;0.10;;;;;;;;;;5016545;28;20277;-69
2021/10/18 07:21:13;;;;;;;0.10;0.10;;;;;;;;;;5003096;28;20253;-68
2021/10/18 07:23:43;;;;;;;0.10;0.10;;;;;;;;;;5003073;28;20210;-68
2021/10/18 07:26:10;;;;;;;0.10;0.10;;;;;;;;;;5007112;28;20249;-67
2021/10/18 07:28:36;;;;;;;0.10;0.10;;;;;;;;;;5012975;28;20444;-68
2021/10/18 07:31:02;;;;;;;0.10;0.10;;;;;;;;;;5012428;28;20214;-68
2021/10/18 07:33:29;;;;;;;0.10;0.10;;;;;;;;;;5003844;28;20274;-69
2021/10/18 07:35:56;;;;;;;0.10;0.10;;;;;;;;;;5002891;28;20397;-69
2021/10/18 07:38:24;;;;;;;0.10;0.10;;;;;;;;;;5016384;28;20293;-69
2021/10/18 07:40:51;;;;;;;0.10;0.10;;;;;;;;;;5002964;28;20570;-69
2021/10/18 07:43:17;;;;;;;0.10;0.10;;;;;;;;;;5002758;28;20210;-69
2021/10/18 07:45:43;;;;;;;0.10;0.10;;;;;;;;;;5012493;28;20418;-68
2021/10/18 07:48:09;;;;;;;0.10;0.10;;;;;;;;;;5012474;28;20209;-69
2021/10/18 07:50:36;;;;;;;0.10;0.10;;;;;;;;;;5006356;28;20306;-71
2021/10/18 07:53:02;;;;;;;0.10;0.10;;;;;;;;;;5021027;28;20211;-67
2021/10/18 07:55:33;;;;;;;0.10;0.10;;;;;;;;;;5021759;28;20338;-68
2021/10/18 07:58:00;;;;;;;0.10;0.10;;;;;;;;;;5021733;28;20209;-69
2021/10/18 08:00:26;;;;;;;0.10;0.10;;;;;;;;;;5007112;28;20205;-68
2021/10/18 08:02:52;;;;;;;0.10;0.10;;;;;;;;;;5006228;28;20213;-68
2021/10/18 08:05:19;;;;;;;0.10;0.10;;;;;;;;;;5005962;28;20544;-68
2021/10/18 08:07:47;;;;;;;0.10;0.10;;;;;;;;;;5019299;28;20237;-68
2021/10/18 08:10:15;;;;;;;0.10;0.10;;;;;;;;;;5005808;28;20226;-68
2021/10/18 08:12:43;;;;;;;0.10;0.10;;;;;;;;;;5019771;28;20213;-67
2021/10/18 08:15:09;;;;;;;0.10;0.10;;;;;;;;;;5006096;28;20277;-69
2021/10/18 08:17:36;;;;;;;0.10;0.10;;;;;;;;;;5005783;28;20353;-67
2021/10/18 08:20:03;;;;;;;0.10;0.10;;;;;;;;;;5006006;28;20259;-68
2021/10/18 08:22:29;;;;;;;0.10;0.10;;;;;;;;;;5011100;28;20204;-68
2021/10/18 08:24:56;;;;;;;0.10;0.10;;;;;;;;;;5011832;28;20272;-69
2021/10/18 08:27:22;;;;;;;0.10;0.10;;;;;;;;;;5015944;28;20452;-69
2021/10/18 08:29:49;;;;;;;0.10;0.10;;;;;;;;;;5008587;28;20223;-70
2021/10/18 08:32:16;;;;;;;0.10;0.10;;;;;;;;;;5011188;28;20337;-68
2021/10/18 08:34:42;;;;;;;0.10;0.10;;;;;;;;;;5012300;28;20208;-68
2021/10/18 08:37:08;;;;;;;0.10;0.10;;;;;;;;;;5011960;28;20267;-70
2021/10/18 08:42:20;;;;;;;0.10;0.10;;;;;;;;;;5010504;28;20208;-69
2021/10/18 08:44:48;;;;;;;0.10;0.10;;;;;;;;;;5014771;28;20217;-69
2021/10/18 08:47:15;;;;;;;0.10;0.10;;;;;;;;;;5016727;28;20418;-68
2021/10/18 08:49:43;;;;;;;0.10;0.10;;;;;;;;;;5018993;28;20324;-68
2021/10/18 08:52:09;;;;;;;0.10;0.10;;;;;;;;;;5011613;28;20506;-68
2021/10/18 08:54:36;;;;;;;0.10;0.10;;;;;;;;;;5005019;28;20225;-67
2021/10/18 08:57:02;;;;;;;2.60;2.33;;;;;;;;;;5004775;28;20213;-68
2021/10/18 08:59:28;;;;;;;0.10;0.10;;;;;;;;;;5005087;28;20222;-67
2021/10/18 09:01:56;;;;;;;0.10;0.10;;;;;;;;;;5005162;28;20211;-69
2021/10/18 09:04:26;;;;;;;0.00;0.00;;;;;;;;;;5014844;28;20268;-68
2021/10/18 09:06:54;;;;;;;0.10;0.10;;;;;;;;;;5024369;28;20239;-69
2021/10/18 09:09:24;;;;;;;0.03;0.03;;;;;;;;;;5024758;28;20209;-69
2021/10/18 09:11:50;;;;;;;0.10;0.10;;;;;;;;;;5009451;28;20275;-70
2021/10/18 09:14:16;;;;;;;0.10;0.10;;;;;;;;;;5004980;28;20209;-68
2021/10/18 09:16:44;;;;;;;0.10;0.10;;;;;;;;;;5005040;28;20503;-68
2021/10/18 09:19:11;;;;;;;0.10;0.10;;;;;;;;;;5013681;28;20213;-67
2021/10/18 09:21:40;;;;;;;0.10;0.10;;;;;;;;;;5010135;28;20296;-68
2021/10/18 09:24:07;;;;;;;0.10;0.10;;;;;;;;;;5008794;28;20238;-69
2021/10/18 09:26:34;;;;;;;0.10;0.10;;;;;;;;;;5006762;28;20234;-68
2021/10/18 09:29:08;;;;;;;0.10;0.10;;;;;;;;;;5012643;28;20227;-67
2021/10/18 09:31:35;;;;;;;0.10;0.10;;;;;;;;;;5009490;28;20256;-68
2021/10/18 09:34:05;;;;;;;0.10;0.10;;;;;;;;;;5005608;28;20376;-68
2021/10/18 09:36:32;;;;;;;0.10;0.10;;;;;;;;;;5004711;28;20271;-69
2021/10/18 09:39:16;;;;;;;0.10;0.10;;;;;;;;;;5019165;28;20230;-68
2021/10/18 09:41:43;;;;;;;0.10;0.10;;;;;;;;;;5022374;28;20552;-69
2021/10/18 09:44:18;;;;;;;0.10;0.10;;;;;;;;;;5023990;28;20278;-68
2021/10/18 09:47:02;;;;;;;0.10;0.10;;;;;;;;;;5023733;28;20244;-70
2021/10/18 10:53:15;;;;;;;0.00;0.00;;;;;;;;;;5010072;28;20420;-72
2021/10/18 10:55:41;;;;;;;0.10;0.10;;;;;;;;;;5006080;28;20499;-69
2021/10/18 10:58:23;;;;;;;0.05;0.05;;;;;;;;;;5017493;28;20202;-68
2021/10/18 11:00:50;;;;;;;3.30;3.20;;;;;;;;;;5014524;28;20271;-67
2021/10/18 11:03:42;;;;;;;0.10;0.10;;;;;;;;;;5017909;28;20246;-67
2021/10/18 11:06:11;;;;;;;0.20;0.20;;;;;;;;;;5017415;28;20208;-69
2021/10/18 11:08:39;;;;;;;0.00;0.00;;;;;;;;;;5011802;28;20236;-69
2021/10/18 11:11:12;;;;;;;0.10;0.10;;;;;;;;;;5019428;28;20543;-68
2021/10/18 11:13:46;;;;;;;0.00;0.00;;;;;;;;;;5003587;28;20201;-69
2021/10/18 11:16:15;;;;;;;0.10;0.10;;;;;;;;;;5003067;28;20270;-68
2021/10/18 11:18:41;;;;;;;0.00;0.00;;;;;;;;;;5016410;28;20208;-68
2021/10/18 11:21:14;;;;;;;0.10;0.10;;;;;;;;;;5007056;28;20231;-68
2021/10/18 11:23:53;;;;;;;0.10;0.10;;;;;;;;;;5007089;28;20551;-68
2021/10/18 11:26:19;;;;;;;0.08;0.08;;;;;;;;;;5007410;28;20384;-70
2021/10/18 11:28:45;;;;;;;0.00;0.00;;;;;;;;;;5011757;28;20271;-69
2021/10/18 11:31:12;;;;;;;0.03;0.03;;;;;;;;;;5026870;28;20206;-69
2021/10/18 11:33:40;;;;;;;0.03;0.03;;;;;;;;;;5026571;28;20247;-69
2021/10/18 11:36:14;;;;;;;0.00;0.00;;;;;;;;;;5012548;28;20210;-68
2021/10/18 11:38:40;;;;;;;0.00;0.00;;;;;;;;;;5013516;28;20200;-69
2021/10/18 11:41:09;;;;;;;0.10;0.10;;;;;;;;;;5007954;28;20207;-68
2021/10/18 11:43:35;;;;;;;0.00;0.00;;;;;;;;;;5007794;28;20206;-70
2021/10/18 11:46:02;;;;;;;0.10;0.10;;;;;;;;;;5008546;28;20207;-68
2021/10/18 11:48:29;;;;;;;0.08;0.08;;;;;;;;;;5007406;28;20232;-69
2021/10/18 11:50:58;;;;;;;0.03;0.03;;;;;;;;;;5012970;28;20208;-70
2021/10/18 11:53:25;;;;;;;0.08;0.08;;;;;;;;;;5010665;28;20209;-68
2021/10/18 11:55:52;;;;;;;0.00;0.00;;;;;;;;;;5022190;28;20246;-67
2021/10/18 11:58:21;;;;;;;0.00;0.00;;;;;;;;;;5021738;28;20203;-66
2021/10/18 12:00:48;;;;;;;0.00;0.00;;;;;;;;;;5022157;28;20430;-67
2021/10/18 12:03:15;;;;;;;0.00;0.00;;;;;;;;;;5021828;28;20487;-67
2021/10/18 12:05:42;;;;;;;0.10;0.10;;;;;;;;;;5014752;28;20452;-67
2021/10/18 12:08:10;;;;;;;0.00;0.00;;;;;;;;;;5019015;28;20227;-66
2021/10/18 12:10:38;;;;;;;0.00;0.00;;;;;;;;;;5016711;28;20211;-66
2021/10/18 12:13:05;;;;;;;0.08;0.08;;;;;;;;;;5019291;28;20566;-67
2021/10/18 12:15:32;;;;;;;0.00;0.00;;;;;;;;;;5014161;28;20206;-68
2021/10/18 12:17:58;;;;;;;0.08;0.08;;;;;;;;;;5020415;28;20205;-67
2021/10/18 12:20:25;;;;;;;0.00;0.00;;;;;;;;;;5021062;28;20205;-66
2021/10/18 12:22:58;;;;;;;0.10;0.10;;;;;;;;;;5025462;28;20197;-67
2021/10/18 12:25:25;;;;;;;0.00;0.00;;;;;;;;;;5025579;28;20250;-66
2021/10/18 12:27:53;;;;;;;0.08;0.08;;;;;;;;;;5013734;28;20360;-67
2021/10/18 12:30:34;;;;;;;0.00;0.00;;;;;;;;;;5010193;28;20435;-69
2021/10/18 12:33:07;;;;;;;0.10;0.10;;;;;;;;;;5012339;28;20254;-67
2021/10/18 12:35:33;;;;;;;0.00;0.00;;;;;;;;;;5025531;28;20242;-66
2021/10/18 12:38:07;;;;;;;0.03;0.03;;;;;;;;;;5018904;28;20496;-67
2021/10/18 12:40:35;;;;;;;0.00;0.00;;;;;;;;;;5005734;28;20250;-67
2021/10/18 12:43:02;;;;;;;0.10;0.10;;;;;;;;;;5005610;28;20502;-67
2021/10/18 12:45:32;;;;;;;0.10;0.10;;;;;;;;;;5005539;28;20202;-66
2021/10/18 12:48:00;;;;;;;0.05;0.05;;;;;;;;;;5021472;28;20273;-66
2021/10/18 12:50:28;;;;;;;0.10;0.10;;;;;;;;;;5016505;28;20280;-66
2021/10/18 12:52:55;;;;;;;0.05;0.05;;;;;;;;;;5005317;28;20392;-68
2021/10/18 12:55:22;;;;;;;0.00;0.00;;;;;;;;;;5005308;28;20209;-67
2021/10/18 12:57:50;;;;;;;0.00;0.00;;;;;;;;;;5005490;28;20446;-67
2021/10/18 13:00:17;;;;;;;0.00;0.00;;;;;;;;;;5008504;28;20253;-65
2021/10/18 13:02:46;;;;;;;0.05;0.05;;;;;;;;;;5006331;28;20264;-67
2021/10/18 13:05:13;;;;;;;0.08;0.08;;;;;;;;;;5009533;28;20244;-67
2021/10/18 13:07:41;;;;;;;0.10;0.10;;;;;;;;;;5005200;28;20501;-67
2021/10/18 13:10:08;;;;;;;0.00;0.00;;;;;;;;;;5014636;28;20216;-65
2021/10/18 13:12:34;;;;;;;0.00;0.00;;;;;;;;;;5011904;28;20213;-67
2021/10/18 13:15:02;;;;;;;0.03;0.03;;;;;;;;;;5015406;28;20579;-68
2021/10/18 13:17:28;;;;;;;0.00;0.00;;;;;;;;;;5009869;28;20202;-67
2021/10/18 13:19:55;;;;;;;0.05;0.05;;;;;;;;;;5015636;28;20254;-66
2021/10/18 13:22:21;;;;;;;0.00;0.00;;;;;;;;;;5012691;28;20214;-66
2021/10/18 13:24:48;;;;;;;0.00;0.00;;;;;;;;;;5013914;28;20412;-67
2021/10/18 13:27:14;;;;;;;0.10;0.10;;;;;;;;;;5009138;28;20290;-67
2021/10/18 13:29:40;;;;;;;0.00;0.00;;;;;;;;;;5017303;28;20214;-67
2021/10/18 13:32:08;;;;;;;0.00;0.00;;;;;;;;;;5008801;28;20454;-68
2021/10/18 13:34:35;;;;;;;0.00;0.00;;;;;;;;;;5009469;28;20209;-66
2021/10/18 13:37:02;;;;;;;0.30;0.30;;;;;;;;;;5011314;28;20493;-67
2021/10/18 13:39:28;;;;;;;0.00;0.00;;;;;;;;;;5011513;28;20223;-66
2021/10/18 13:41:54;;;;;;;0.00;0.00;;;;;;;;;;5016956;28;20512;-66
2021/10/18 13:44:21;;;;;;;0.03;0.03;;;;;;;;;;5014718;28;20201;-66
2021/10/18 13:46:47;;;;;;;0.00;0.00;;;;;;;;;;5017184;28;20391;-67
2021/10/18 13:49:15;;;;;;;0.10;0.10;;;;;;;;;;5009389;28;20293;-65
2021/10/18 13:51:41;;;;;;;0.10;0.10;;;;;;;;;;5014085;28;20254;-66
2021/10/18 13:54:07;;;;;;;0.03;0.03;;;;;;;;;;5007387;28;20242;-66
2021/10/18 13:56:34;;;;;;;0.10;0.10;;;;;;;;;;5012729;28;20241;-66
2021/10/18 13:59:00;;;;;;;0.10;0.10;;;;;;;;;;5004376;28;20276;-66
2021/10/18 14:01:27;;;;;;;0.00;0.00;;;;;;;;;;5010222;28;20375;-66
2021/10/18 14:03:53;;;;;;;0.03;0.03;;;;;;;;;;5011208;28;20232;-65
2021/10/18 14:06:20;;;;;;;0.10;0.10;;;;;;;;;;5017092;28;20207;-65
2021/10/18 14:08:47;;;;;;;0.03;0.03;;;;;;;;;;5015963;28;20229;-65
2021/10/18 14:11:14;;;;;;;0.03;0.03;;;;;;;;;;5008656;28;20213;-66
2021/10/18 14:13:40;;;;;;;0.00;0.00;;;;;;;;;;5014490;28;20213;-65
2021/10/18 14:16:06;;;;;;;0.00;0.00;;;;;;;;;;5019475;28;20205;-66
2021/10/18 14:18:32;;;;;;;0.10;0.10;;;;;;;;;;5015886;28;20201;-66
2021/10/18 14:20:59;;;;;;;0.10;0.10;;;;;;;;;;5017498;28;20232;-65
2021/10/18 14:23:27;;;;;;;0.03;0.03;;;;;;;;;;5012037;28;20400;-66
2021/10/18 14:25:53;;;;;;;0.10;0.10;;;;;;;;;;5007648;28;20571;-66
2021/10/18 14:28:19;;;;;;;0.00;0.00;;;;;;;;;;5011159;28;20556;-65
2021/10/18 14:30:45;;;;;;;0.10;0.10;;;;;;;;;;5017793;28;20370;-65
2021/10/18 14:33:12;;;;;;;0.00;0.00;;;;;;;;;;5014834;28;20534;-66
2021/10/18 14:35:38;;;;;;;0.00;0.00;;;;;;;;;;5017580;28;20212;-64
2021/10/18 14:38:04;;;;;;;0.10;0.10;;;;;;;;;;5013869;28;20515;-65
2021/10/18 14:40:32;;;;;;;0.03;0.03;;;;;;;;;;5009335;28;20207;-65
2021/10/18 14:42:58;;;;;;;0.00;0.00;;;;;;;;;;5011225;28;20493;-66
2021/10/18 14:45:24;;;;;;;0.10;0.10;;;;;;;;;;5010241;28;20271;-65
2021/10/18 14:47:51;;;;;;;0.00;0.00;;;;;;;;;;5010868;28;20459;-66
2021/10/18 14:50:17;;;;;;;0.10;0.10;;;;;;;;;;5006891;28;20251;-66
2021/10/18 14:52:44;;;;;;;0.10;0.10;;;;;;;;;;5006659;28;20245;-65
2021/10/18 14:55:12;;;;;;;0.10;0.10;;;;;;;;;;5005516;28;20277;-66
2021/10/18 14:57:40;;;;;;;0.00;0.00;;;;;;;;;;5015613;28;20276;-66
2021/10/18 15:00:07;;;;;;;0.10;0.10;;;;;;;;;;5015842;28;20495;-66
2021/10/18 15:02:33;;;;;;;0.10;0.10;;;;;;;;;;5011673;28;20396;-64
2021/10/18 15:05:00;;;;;;;0.10;0.10;;;;;;;;;;5016105;28;20654;-66
2021/10/18 15:07:27;;;;;;;0.10;0.10;;;;;;;;;;5008839;28;20217;-66
2021/10/18 15:09:53;;;;;;;0.10;0.10;;;;;;;;;;5015287;28;20210;-66
2021/10/18 15:12:22;;;;;;;0.10;0.10;;;;;;;;;;5009577;28;20525;-66
2021/10/18 15:14:49;;;;;;;0.10;0.10;;;;;;;;;;5012716;28;20536;-66
2021/10/18 15:17:15;;;;;;;0.10;0.10;;;;;;;;;;5016432;28;20252;-67
2021/10/18 15:19:42;;;;;;;0.10;0.10;;;;;;;;;;5009751;28;20214;-65
2021/10/18 15:22:10;;;;;;;0.10;0.10;;;;;;;;;;5012864;28;20278;-65
2021/10/18 15:24:36;;;;;;;0.10;0.10;;;;;;;;;;5012969;28;20515;-63
2021/10/18 15:27:03;;;;;;;0.00;0.00;;;;;;;;;;5013745;28;20209;-64
2021/10/18 15:29:30;;;;;;;0.10;0.10;;;;;;;;;;5011607;28;20227;-66
2021/10/18 15:31:59;;;;;;;0.03;0.03;;;;;;;;;;5012553;28;20253;-65
2021/10/18 15:34:25;;;;;;;0.00;0.00;;;;;;;;;;5011179;28;20216;-65
2021/10/18 15:36:51;;;;;;;0.10;0.10;;;;;;;;;;5011617;28;20266;-65
2021/10/18 15:39:18;;;;;;;0.10;0.10;;;;;;;;;;5008899;28;20203;-65
2021/10/18 15:41:45;;;;;;;0.00;0.00;;;;;;;;;;5008190;28;20637;-65
2021/10/18 15:44:12;;;;;;;0.00;0.00;;;;;;;;;;5012532;28;20267;-64
2021/10/18 15:46:40;;;;;;;0.10;0.10;;;;;;;;;;5013463;28;20417;-65
2021/10/18 15:49:08;;;;;;;0.10;0.10;;;;;;;;;;5006657;28;20228;-65